sensor_id;sensor_type;location;lat;lon;timestamp;P1;durP1;ratioP1;P2;durP2;ratioP2
44662;SDS011;30381;52.754;18.258;2023-11-22T00:00:22;38.30;;;15.70;;
44662;SDS011;30381;52.754;18.258;2023-11-22T00:03:31;117.60;;;36.80;;
44662;SDS011;30381;52.754;18.258;2023-11-22T00:05:59;58.80;;;21.80;;
44662;SDS011;30381;52.754;18.258;2023-11-22T00:08:29;58.90;;;17.60;;
44662;SDS011;30381;52.754;18.258;2023-11-22T00:11:01;38.40;;;12.80;;
44662;SDS011;30381;52.754;18.258;2023-11-22T00:13:29;31.10;;;11.00;;
44662;SDS011;30381;52.754;18.258;2023-11-22T00:16:18;24.00;;;10.10;;
44662;SDS011;30381;52.754;18.258;2023-11-22T00:18:48;25.20;;;10.50;;
44662;SDS011;30381;52.754;18.258;2023-11-22T00:21:40;25.50;;;9.60;;
44662;SDS011;30381;52.754;18.258;2023-11-22T00:24:06;27.50;;;12.00;;
44662;SDS011;30381;52.754;18.258;2023-11-22T00:26:35;22.00;;;10.20;;
44662;SDS011;30381;52.754;18.258;2023-11-22T00:29:04;25.50;;;10.90;;
44662;SDS011;30381;52.754;18.258;2023-11-22T00:31:33;32.60;;;12.90;;
44662;SDS011;30381;52.754;18.258;2023-11-22T00:34:01;26.90;;;12.00;;
44662;SDS011;30381;52.754;18.258;2023-11-22T00:36:27;23.70;;;10.90;;
44662;SDS011;30381;52.754;18.258;2023-11-22T00:38:55;26.20;;;12.00;;
44662;SDS011;30381;52.754;18.258;2023-11-22T00:41:29;25.10;;;12.70;;
44662;SDS011;30381;52.754;18.258;2023-11-22T00:43:57;23.20;;;10.10;;
44662;SDS011;30381;52.754;18.258;2023-11-22T00:46:24;17.60;;;7.70;;
44662;SDS011;30381;52.754;18.258;2023-11-22T00:48:51;27.30;;;10.40;;
44662;SDS011;30381;52.754;18.258;2023-11-22T00:51:18;28.20;;;9.70;;
44662;SDS011;30381;52.754;18.258;2023-11-22T00:53:47;26.20;;;11.80;;
44662;SDS011;30381;52.754;18.258;2023-11-22T00:56:14;18.90;;;7.50;;
44662;SDS011;30381;52.754;18.258;2023-11-22T00:58:41;27.40;;;12.10;;
44662;SDS011;30381;52.754;18.258;2023-11-22T01:01:09;20.80;;;9.30;;
44662;SDS011;30381;52.754;18.258;2023-11-22T01:03:37;23.50;;;10.60;;
44662;SDS011;30381;52.754;18.258;2023-11-22T01:06:03;26.20;;;12.30;;
44662;SDS011;30381;52.754;18.258;2023-11-22T01:08:32;29.10;;;11.60;;
44662;SDS011;30381;52.754;18.258;2023-11-22T01:10:58;27.50;;;12.20;;
44662;SDS011;30381;52.754;18.258;2023-11-22T01:13:25;26.50;;;13.00;;
44662;SDS011;30381;52.754;18.258;2023-11-22T01:15:52;28.70;;;12.10;;
44662;SDS011;30381;52.754;18.258;2023-11-22T01:18:20;32.00;;;13.00;;
44662;SDS011;30381;52.754;18.258;2023-11-22T01:20:47;28.30;;;12.30;;
44662;SDS011;30381;52.754;18.258;2023-11-22T01:23:13;26.60;;;12.30;;
44662;SDS011;30381;52.754;18.258;2023-11-22T01:25:40;27.90;;;12.30;;
44662;SDS011;30381;52.754;18.258;2023-11-22T01:28:06;28.30;;;11.50;;
44662;SDS011;30381;52.754;18.258;2023-11-22T01:30:33;26.80;;;11.40;;
44662;SDS011;30381;52.754;18.258;2023-11-22T01:33:00;25.90;;;11.50;;
44662;SDS011;30381;52.754;18.258;2023-11-22T01:35:26;26.90;;;11.00;;
44662;SDS011;30381;52.754;18.258;2023-11-22T01:37:52;26.60;;;11.30;;
44662;SDS011;30381;52.754;18.258;2023-11-22T01:40:19;28.40;;;11.80;;
44662;SDS011;30381;52.754;18.258;2023-11-22T01:42:46;25.40;;;11.70;;
44662;SDS011;30381;52.754;18.258;2023-11-22T01:45:12;26.30;;;11.30;;
44662;SDS011;30381;52.754;18.258;2023-11-22T01:47:39;27.10;;;12.00;;
44662;SDS011;30381;52.754;18.258;2023-11-22T01:50:06;25.40;;;12.30;;
44662;SDS011;30381;52.754;18.258;2023-11-22T01:52:34;27.20;;;12.00;;
44662;SDS011;30381;52.754;18.258;2023-11-22T01:55:01;28.10;;;12.60;;
44662;SDS011;30381;52.754;18.258;2023-11-22T01:57:31;24.50;;;10.90;;
44662;SDS011;30381;52.754;18.258;2023-11-22T02:00:01;29.50;;;12.60;;
44662;SDS011;30381;52.754;18.258;2023-11-22T02:02:33;28.50;;;11.50;;
44662;SDS011;30381;52.754;18.258;2023-11-22T02:05:00;26.50;;;12.30;;
44662;SDS011;30381;52.754;18.258;2023-11-22T02:07:27;29.20;;;12.30;;
44662;SDS011;30381;52.754;18.258;2023-11-22T02:09:53;33.20;;;13.40;;
44662;SDS011;30381;52.754;18.258;2023-11-22T02:12:20;29.70;;;14.10;;
44662;SDS011;30381;52.754;18.258;2023-11-22T02:14:46;32.00;;;14.60;;
44662;SDS011;30381;52.754;18.258;2023-11-22T02:17:13;37.40;;;17.80;;
44662;SDS011;30381;52.754;18.258;2023-11-22T02:19:40;37.10;;;18.40;;
44662;SDS011;30381;52.754;18.258;2023-11-22T02:22:06;39.20;;;18.80;;
44662;SDS011;30381;52.754;18.258;2023-11-22T02:24:33;42.00;;;18.40;;
44662;SDS011;30381;52.754;18.258;2023-11-22T02:27:00;33.40;;;15.50;;
44662;SDS011;30381;52.754;18.258;2023-11-22T02:29:26;35.80;;;15.80;;
44662;SDS011;30381;52.754;18.258;2023-11-22T02:31:54;32.00;;;14.80;;
44662;SDS011;30381;52.754;18.258;2023-11-22T02:34:20;31.10;;;13.80;;
44662;SDS011;30381;52.754;18.258;2023-11-22T02:36:46;31.90;;;13.10;;
44662;SDS011;30381;52.754;18.258;2023-11-22T02:39:13;32.80;;;14.30;;
44662;SDS011;30381;52.754;18.258;2023-11-22T02:41:40;32.30;;;14.90;;
44662;SDS011;30381;52.754;18.258;2023-11-22T02:44:06;30.80;;;14.80;;
44662;SDS011;30381;52.754;18.258;2023-11-22T02:46:32;35.00;;;15.40;;
44662;SDS011;30381;52.754;18.258;2023-11-22T02:48:59;43.10;;;17.90;;
44662;SDS011;30381;52.754;18.258;2023-11-22T02:51:25;37.70;;;16.10;;
44662;SDS011;30381;52.754;18.258;2023-11-22T02:53:53;37.20;;;17.20;;
44662;SDS011;30381;52.754;18.258;2023-11-22T02:56:19;37.10;;;16.60;;
44662;SDS011;30381;52.754;18.258;2023-11-22T02:58:46;37.90;;;16.60;;
44662;SDS011;30381;52.754;18.258;2023-11-22T03:01:13;36.10;;;17.00;;
44662;SDS011;30381;52.754;18.258;2023-11-22T03:03:39;36.10;;;16.80;;
44662;SDS011;30381;52.754;18.258;2023-11-22T03:06:05;41.20;;;18.80;;
44662;SDS011;30381;52.754;18.258;2023-11-22T03:08:32;40.20;;;18.10;;
44662;SDS011;30381;52.754;18.258;2023-11-22T03:10:59;40.90;;;17.50;;
44662;SDS011;30381;52.754;18.258;2023-11-22T03:13:25;36.90;;;15.70;;
44662;SDS011;30381;52.754;18.258;2023-11-22T03:15:51;35.40;;;16.80;;
44662;SDS011;30381;52.754;18.258;2023-11-22T03:18:18;37.00;;;16.40;;
44662;SDS011;30381;52.754;18.258;2023-11-22T03:20:44;36.50;;;16.10;;
44662;SDS011;30381;52.754;18.258;2023-11-22T03:23:10;41.60;;;17.50;;
44662;SDS011;30381;52.754;18.258;2023-11-22T03:25:37;40.20;;;18.80;;
44662;SDS011;30381;52.754;18.258;2023-11-22T03:28:03;38.30;;;16.80;;
44662;SDS011;30381;52.754;18.258;2023-11-22T03:30:30;39.00;;;18.80;;
44662;SDS011;30381;52.754;18.258;2023-11-22T03:32:56;40.70;;;17.60;;
44662;SDS011;30381;52.754;18.258;2023-11-22T03:35:22;40.60;;;18.90;;
44662;SDS011;30381;52.754;18.258;2023-11-22T03:37:48;42.80;;;19.40;;
44662;SDS011;30381;52.754;18.258;2023-11-22T03:40:15;33.00;;;16.00;;
44662;SDS011;30381;52.754;18.258;2023-11-22T03:42:41;38.30;;;17.70;;
44662;SDS011;30381;52.754;18.258;2023-11-22T03:45:08;35.90;;;14.20;;
44662;SDS011;30381;52.754;18.258;2023-11-22T03:47:34;33.10;;;15.60;;
44662;SDS011;30381;52.754;18.258;2023-11-22T03:50:04;35.90;;;14.90;;
44662;SDS011;30381;52.754;18.258;2023-11-22T03:52:32;33.30;;;13.90;;
44662;SDS011;30381;52.754;18.258;2023-11-22T03:54:58;36.60;;;17.00;;
44662;SDS011;30381;52.754;18.258;2023-11-22T03:57:24;39.50;;;17.50;;
44662;SDS011;30381;52.754;18.258;2023-11-22T03:59:50;37.20;;;17.30;;
44662;SDS011;30381;52.754;18.258;2023-11-22T04:02:17;38.60;;;16.80;;
44662;SDS011;30381;52.754;18.258;2023-11-22T04:04:43;38.90;;;17.70;;
44662;SDS011;30381;52.754;18.258;2023-11-22T04:07:10;37.30;;;18.20;;
44662;SDS011;30381;52.754;18.258;2023-11-22T04:09:36;38.20;;;17.30;;
44662;SDS011;30381;52.754;18.258;2023-11-22T04:12:03;39.70;;;18.60;;
44662;SDS011;30381;52.754;18.258;2023-11-22T04:14:30;41.70;;;19.10;;
44662;SDS011;30381;52.754;18.258;2023-11-22T04:16:56;38.50;;;17.20;;
44662;SDS011;30381;52.754;18.258;2023-11-22T04:19:22;43.80;;;19.10;;
44662;SDS011;30381;52.754;18.258;2023-11-22T04:21:49;41.90;;;19.20;;
44662;SDS011;30381;52.754;18.258;2023-11-22T04:24:15;42.50;;;18.10;;
44662;SDS011;30381;52.754;18.258;2023-11-22T04:26:41;44.00;;;19.20;;
44662;SDS011;30381;52.754;18.258;2023-11-22T04:29:08;40.60;;;19.40;;
44662;SDS011;30381;52.754;18.258;2023-11-22T04:31:34;42.20;;;18.70;;
44662;SDS011;30381;52.754;18.258;2023-11-22T04:34:00;40.90;;;19.50;;
44662;SDS011;30381;52.754;18.258;2023-11-22T04:36:26;41.40;;;18.20;;
44662;SDS011;30381;52.754;18.258;2023-11-22T04:38:53;43.50;;;19.70;;
44662;SDS011;30381;52.754;18.258;2023-11-22T04:41:19;40.80;;;17.60;;
44662;SDS011;30381;52.754;18.258;2023-11-22T04:43:45;48.10;;;20.10;;
44662;SDS011;30381;52.754;18.258;2023-11-22T04:46:11;46.90;;;21.40;;
44662;SDS011;30381;52.754;18.258;2023-11-22T04:48:38;47.90;;;21.00;;
44662;SDS011;30381;52.754;18.258;2023-11-22T04:51:06;48.50;;;21.90;;
44662;SDS011;30381;52.754;18.258;2023-11-22T04:53:32;45.40;;;20.70;;
44662;SDS011;30381;52.754;18.258;2023-11-22T04:55:58;49.30;;;20.50;;
44662;SDS011;30381;52.754;18.258;2023-11-22T04:58:25;41.40;;;18.20;;
44662;SDS011;30381;52.754;18.258;2023-11-22T05:00:51;46.70;;;19.60;;
44662;SDS011;30381;52.754;18.258;2023-11-22T05:03:17;43.60;;;19.50;;
44662;SDS011;30381;52.754;18.258;2023-11-22T05:05:44;45.20;;;20.30;;
44662;SDS011;30381;52.754;18.258;2023-11-22T05:08:11;42.20;;;18.50;;
44662;SDS011;30381;52.754;18.258;2023-11-22T05:10:37;45.70;;;20.90;;
44662;SDS011;30381;52.754;18.258;2023-11-22T05:13:03;58.30;;;25.40;;
44662;SDS011;30381;52.754;18.258;2023-11-22T05:15:31;67.90;;;29.20;;
44662;SDS011;30381;52.754;18.258;2023-11-22T05:17:57;77.20;;;31.20;;
44662;SDS011;30381;52.754;18.258;2023-11-22T05:20:23;71.70;;;29.10;;
44662;SDS011;30381;52.754;18.258;2023-11-22T05:22:50;69.90;;;27.30;;
44662;SDS011;30381;52.754;18.258;2023-11-22T05:25:16;66.20;;;27.50;;
44662;SDS011;30381;52.754;18.258;2023-11-22T05:27:43;73.20;;;30.90;;
44662;SDS011;30381;52.754;18.258;2023-11-22T05:30:09;75.50;;;32.20;;
44662;SDS011;30381;52.754;18.258;2023-11-22T05:32:36;83.10;;;33.50;;
44662;SDS011;30381;52.754;18.258;2023-11-22T05:35:03;81.10;;;32.90;;
44662;SDS011;30381;52.754;18.258;2023-11-22T05:37:32;84.90;;;32.60;;
44662;SDS011;30381;52.754;18.258;2023-11-22T05:39:58;214.80;;;79.50;;
44662;SDS011;30381;52.754;18.258;2023-11-22T05:42:25;163.30;;;64.70;;
44662;SDS011;30381;52.754;18.258;2023-11-22T05:44:51;141.70;;;53.30;;
44662;SDS011;30381;52.754;18.258;2023-11-22T05:47:17;311.80;;;73.30;;
44662;SDS011;30381;52.754;18.258;2023-11-22T05:49:44;143.60;;;47.70;;
44662;SDS011;30381;52.754;18.258;2023-11-22T05:52:10;86.40;;;35.00;;
44662;SDS011;30381;52.754;18.258;2023-11-22T05:54:37;81.50;;;31.60;;
44662;SDS011;30381;52.754;18.258;2023-11-22T05:57:03;66.90;;;28.80;;
44662;SDS011;30381;52.754;18.258;2023-11-22T05:59:30;93.50;;;36.30;;
44662;SDS011;30381;52.754;18.258;2023-11-22T06:01:56;143.90;;;47.90;;
44662;SDS011;30381;52.754;18.258;2023-11-22T06:04:22;148.10;;;45.10;;
44662;SDS011;30381;52.754;18.258;2023-11-22T06:06:48;149.50;;;45.50;;
44662;SDS011;30381;52.754;18.258;2023-11-22T06:09:15;115.10;;;39.80;;
44662;SDS011;30381;52.754;18.258;2023-11-22T06:11:41;97.60;;;36.80;;
44662;SDS011;30381;52.754;18.258;2023-11-22T06:14:07;93.80;;;36.30;;
44662;SDS011;30381;52.754;18.258;2023-11-22T06:16:33;97.10;;;40.00;;
44662;SDS011;30381;52.754;18.258;2023-11-22T06:18:59;99.30;;;42.10;;
44662;SDS011;30381;52.754;18.258;2023-11-22T06:21:26;99.20;;;45.50;;
44662;SDS011;30381;52.754;18.258;2023-11-22T06:23:53;98.60;;;41.70;;
44662;SDS011;30381;52.754;18.258;2023-11-22T06:26:24;86.70;;;41.50;;
44662;SDS011;30381;52.754;18.258;2023-11-22T06:28:50;103.70;;;45.50;;
44662;SDS011;30381;52.754;18.258;2023-11-22T06:31:16;107.00;;;43.70;;
44662;SDS011;30381;52.754;18.258;2023-11-22T06:33:43;88.80;;;37.30;;
44662;SDS011;30381;52.754;18.258;2023-11-22T06:36:09;84.70;;;36.10;;
44662;SDS011;30381;52.754;18.258;2023-11-22T06:38:37;83.80;;;36.10;;
44662;SDS011;30381;52.754;18.258;2023-11-22T06:41:03;89.70;;;34.20;;
44662;SDS011;30381;52.754;18.258;2023-11-22T06:43:29;85.10;;;34.00;;
44662;SDS011;30381;52.754;18.258;2023-11-22T06:45:55;77.50;;;33.10;;
44662;SDS011;30381;52.754;18.258;2023-11-22T06:48:22;90.70;;;37.90;;
44662;SDS011;30381;52.754;18.258;2023-11-22T06:50:48;96.20;;;39.70;;
44662;SDS011;30381;52.754;18.258;2023-11-22T06:53:14;92.00;;;38.90;;
44662;SDS011;30381;52.754;18.258;2023-11-22T06:55:45;115.00;;;47.10;;
44662;SDS011;30381;52.754;18.258;2023-11-22T06:58:11;134.80;;;48.70;;
44662;SDS011;30381;52.754;18.258;2023-11-22T07:00:38;135.20;;;49.30;;
44662;SDS011;30381;52.754;18.258;2023-11-22T07:03:05;180.80;;;58.40;;
44662;SDS011;30381;52.754;18.258;2023-11-22T07:05:32;124.00;;;48.40;;
44662;SDS011;30381;52.754;18.258;2023-11-22T07:07:58;121.20;;;51.70;;
44662;SDS011;30381;52.754;18.258;2023-11-22T07:10:25;116.20;;;46.70;;
44662;SDS011;30381;52.754;18.258;2023-11-22T07:12:52;102.50;;;45.10;;
44662;SDS011;30381;52.754;18.258;2023-11-22T07:15:18;111.80;;;47.00;;
44662;SDS011;30381;52.754;18.258;2023-11-22T07:17:44;111.50;;;46.80;;
44662;SDS011;30381;52.754;18.258;2023-11-22T07:20:11;105.10;;;46.40;;
44662;SDS011;30381;52.754;18.258;2023-11-22T07:22:42;128.10;;;54.20;;
44662;SDS011;30381;52.754;18.258;2023-11-22T07:25:09;199.70;;;72.90;;
44662;SDS011;30381;52.754;18.258;2023-11-22T07:27:44;161.00;;;65.00;;
44662;SDS011;30381;52.754;18.258;2023-11-22T07:30:12;173.70;;;70.70;;
44662;SDS011;30381;52.754;18.258;2023-11-22T07:32:41;155.00;;;65.10;;
44662;SDS011;30381;52.754;18.258;2023-11-22T07:35:08;147.30;;;60.30;;
44662;SDS011;30381;52.754;18.258;2023-11-22T07:37:35;96.10;;;42.60;;
44662;SDS011;30381;52.754;18.258;2023-11-22T07:40:08;81.20;;;38.30;;
44662;SDS011;30381;52.754;18.258;2023-11-22T07:42:36;65.30;;;30.80;;
44662;SDS011;30381;52.754;18.258;2023-11-22T07:45:02;67.20;;;30.90;;
44662;SDS011;30381;52.754;18.258;2023-11-22T07:47:29;66.60;;;31.20;;
44662;SDS011;30381;52.754;18.258;2023-11-22T07:49:55;58.70;;;28.10;;
44662;SDS011;30381;52.754;18.258;2023-11-22T07:52:21;56.70;;;27.60;;
44662;SDS011;30381;52.754;18.258;2023-11-22T07:54:48;68.00;;;31.00;;
44662;SDS011;30381;52.754;18.258;2023-11-22T07:57:15;68.00;;;34.70;;
44662;SDS011;30381;52.754;18.258;2023-11-22T07:59:41;91.10;;;36.90;;
44662;SDS011;30381;52.754;18.258;2023-11-22T08:02:08;62.90;;;27.50;;
44662;SDS011;30381;52.754;18.258;2023-11-22T08:04:37;54.70;;;26.50;;
44662;SDS011;30381;52.754;18.258;2023-11-22T08:07:03;63.10;;;27.90;;
44662;SDS011;30381;52.754;18.258;2023-11-22T08:09:30;51.60;;;24.90;;
44662;SDS011;30381;52.754;18.258;2023-11-22T08:12:01;88.80;;;38.00;;
44662;SDS011;30381;52.754;18.258;2023-11-22T08:14:28;49.30;;;25.20;;
44662;SDS011;30381;52.754;18.258;2023-11-22T08:16:56;56.00;;;27.40;;
44662;SDS011;30381;52.754;18.258;2023-11-22T08:19:22;52.10;;;24.60;;
44662;SDS011;30381;52.754;18.258;2023-11-22T08:21:50;85.70;;;31.80;;
44662;SDS011;30381;52.754;18.258;2023-11-22T08:24:16;98.60;;;39.60;;
44662;SDS011;30381;52.754;18.258;2023-11-22T08:26:44;53.30;;;25.50;;
44662;SDS011;30381;52.754;18.258;2023-11-22T08:29:11;81.80;;;35.60;;
44662;SDS011;30381;52.754;18.258;2023-11-22T08:31:37;43.00;;;21.80;;
44662;SDS011;30381;52.754;18.258;2023-11-22T08:34:03;47.30;;;22.90;;
44662;SDS011;30381;52.754;18.258;2023-11-22T08:36:33;56.20;;;25.10;;
44662;SDS011;30381;52.754;18.258;2023-11-22T08:39:02;45.90;;;23.40;;
44662;SDS011;30381;52.754;18.258;2023-11-22T08:41:30;43.60;;;22.50;;
44662;SDS011;30381;52.754;18.258;2023-11-22T08:43:57;43.00;;;21.50;;
44662;SDS011;30381;52.754;18.258;2023-11-22T08:46:24;44.90;;;21.80;;
44662;SDS011;30381;52.754;18.258;2023-11-22T08:48:50;40.80;;;19.70;;
44662;SDS011;30381;52.754;18.258;2023-11-22T08:51:19;39.70;;;19.90;;
44662;SDS011;30381;52.754;18.258;2023-11-22T08:53:45;36.00;;;17.60;;
44662;SDS011;30381;52.754;18.258;2023-11-22T08:56:11;40.30;;;19.60;;
44662;SDS011;30381;52.754;18.258;2023-11-22T08:58:38;34.60;;;17.00;;
44662;SDS011;30381;52.754;18.258;2023-11-22T09:01:08;35.50;;;16.90;;
44662;SDS011;30381;52.754;18.258;2023-11-22T09:03:34;49.20;;;20.70;;
44662;SDS011;30381;52.754;18.258;2023-11-22T09:06:01;40.90;;;18.90;;
44662;SDS011;30381;52.754;18.258;2023-11-22T09:08:28;34.90;;;18.20;;
44662;SDS011;30381;52.754;18.258;2023-11-22T09:10:55;54.30;;;22.80;;
44662;SDS011;30381;52.754;18.258;2023-11-22T09:13:22;55.60;;;23.00;;
44662;SDS011;30381;52.754;18.258;2023-11-22T09:15:48;44.60;;;18.50;;
44662;SDS011;30381;52.754;18.258;2023-11-22T09:18:15;70.40;;;23.90;;
44662;SDS011;30381;52.754;18.258;2023-11-22T09:20:41;55.40;;;21.90;;
44662;SDS011;30381;52.754;18.258;2023-11-22T09:23:10;37.40;;;16.20;;
44662;SDS011;30381;52.754;18.258;2023-11-22T09:25:37;36.40;;;17.50;;
44662;SDS011;30381;52.754;18.258;2023-11-22T09:30:59;32.90;;;17.10;;
44662;SDS011;30381;52.754;18.258;2023-11-22T09:33:57;30.80;;;15.60;;
44662;SDS011;30381;52.754;18.258;2023-11-22T09:43:37;28.20;;;14.10;;
44662;SDS011;30381;52.754;18.258;2023-11-22T09:46:08;30.20;;;14.30;;
44662;SDS011;30381;52.754;18.258;2023-11-22T09:48:39;25.90;;;13.10;;
44662;SDS011;30381;52.754;18.258;2023-11-22T09:56:35;26.80;;;12.10;;
44662;SDS011;30381;52.754;18.258;2023-11-22T10:00:43;19.90;;;10.30;;
44662;SDS011;30381;52.754;18.258;2023-11-22T10:04:09;25.00;;;11.40;;
44662;SDS011;30381;52.754;18.258;2023-11-22T10:40:55;20.00;;;10.60;;
44662;SDS011;30381;52.754;18.258;2023-11-22T10:43:30;25.80;;;14.10;;
44662;SDS011;30381;52.754;18.258;2023-11-22T10:46:04;21.00;;;9.60;;
44662;SDS011;30381;52.754;18.258;2023-11-22T10:48:41;23.30;;;11.80;;
44662;SDS011;30381;52.754;18.258;2023-11-22T10:51:09;23.50;;;12.10;;
44662;SDS011;30381;52.754;18.258;2023-11-22T10:53:46;22.20;;;11.10;;
44662;SDS011;30381;52.754;18.258;2023-11-22T10:56:15;18.90;;;9.70;;
44662;SDS011;30381;52.754;18.258;2023-11-22T10:58:49;20.30;;;10.00;;
44662;SDS011;30381;52.754;18.258;2023-11-22T11:01:24;23.40;;;11.50;;
44662;SDS011;30381;52.754;18.258;2023-11-22T11:04:02;27.60;;;14.60;;
44662;SDS011;30381;52.754;18.258;2023-11-22T11:06:51;28.00;;;12.70;;
44662;SDS011;30381;52.754;18.258;2023-11-22T11:09:43;25.40;;;13.10;;
44662;SDS011;30381;52.754;18.258;2023-11-22T11:26:52;34.90;;;16.60;;
44662;SDS011;30381;52.754;18.258;2023-11-22T11:35:56;37.90;;;18.10;;
44662;SDS011;30381;52.754;18.258;2023-11-22T11:39:13;35.40;;;16.30;;
44662;SDS011;30381;52.754;18.258;2023-11-22T11:42:23;25.80;;;13.40;;
44662;SDS011;30381;52.754;18.258;2023-11-22T11:45:26;29.50;;;14.10;;
44662;SDS011;30381;52.754;18.258;2023-11-22T11:48:22;29.10;;;14.20;;
44662;SDS011;30381;52.754;18.258;2023-11-22T11:51:11;42.00;;;20.30;;
44662;SDS011;30381;52.754;18.258;2023-11-22T11:54:21;45.90;;;20.50;;
44662;SDS011;30381;52.754;18.258;2023-11-22T11:58:09;24.60;;;12.80;;
44662;SDS011;30381;52.754;18.258;2023-11-22T12:00:44;33.50;;;16.40;;
44662;SDS011;30381;52.754;18.258;2023-11-22T12:03:17;22.20;;;11.70;;
44662;SDS011;30381;52.754;18.258;2023-11-22T12:06:30;20.60;;;12.70;;
44662;SDS011;30381;52.754;18.258;2023-11-22T12:09:38;46.90;;;19.00;;
44662;SDS011;30381;52.754;18.258;2023-11-22T12:12:49;33.20;;;13.40;;
44662;SDS011;30381;52.754;18.258;2023-11-22T12:15:46;30.30;;;12.40;;
44662;SDS011;30381;52.754;18.258;2023-11-22T12:18:53;34.70;;;16.50;;
44662;SDS011;30381;52.754;18.258;2023-11-22T12:21:45;35.20;;;15.40;;
44662;SDS011;30381;52.754;18.258;2023-11-22T12:24:18;30.30;;;15.70;;
44662;SDS011;30381;52.754;18.258;2023-11-22T12:27:11;33.90;;;14.90;;
44662;SDS011;30381;52.754;18.258;2023-11-22T12:29:54;37.10;;;17.10;;
44662;SDS011;30381;52.754;18.258;2023-11-22T12:35:21;27.90;;;15.20;;
44662;SDS011;30381;52.754;18.258;2023-11-22T12:48:51;43.10;;;26.10;;
44662;SDS011;30381;52.754;18.258;2023-11-22T12:51:19;30.30;;;16.30;;
44662;SDS011;30381;52.754;18.258;2023-11-22T12:53:52;34.30;;;15.30;;
44662;SDS011;30381;52.754;18.258;2023-11-22T12:56:19;31.30;;;15.10;;
44662;SDS011;30381;52.754;18.258;2023-11-22T12:58:45;45.30;;;20.40;;
44662;SDS011;30381;52.754;18.258;2023-11-22T13:01:14;32.70;;;14.50;;
44662;SDS011;30381;52.754;18.258;2023-11-22T13:03:41;29.70;;;13.60;;
44662;SDS011;30381;52.754;18.258;2023-11-22T13:06:08;26.10;;;12.20;;
44662;SDS011;30381;52.754;18.258;2023-11-22T13:08:34;25.00;;;11.40;;
44662;SDS011;30381;52.754;18.258;2023-11-22T13:11:01;23.80;;;11.10;;
44662;SDS011;30381;52.754;18.258;2023-11-22T13:13:28;26.80;;;12.60;;
44662;SDS011;30381;52.754;18.258;2023-11-22T13:15:56;24.80;;;13.00;;
44662;SDS011;30381;52.754;18.258;2023-11-22T13:18:24;28.80;;;12.40;;
44662;SDS011;30381;52.754;18.258;2023-11-22T13:20:52;26.30;;;11.00;;
44662;SDS011;30381;52.754;18.258;2023-11-22T13:23:18;28.10;;;11.90;;
44662;SDS011;30381;52.754;18.258;2023-11-22T13:25:44;43.10;;;17.20;;
44662;SDS011;30381;52.754;18.258;2023-11-22T13:28:15;37.60;;;17.50;;
44662;SDS011;30381;52.754;18.258;2023-11-22T13:30:41;32.80;;;15.80;;
44662;SDS011;30381;52.754;18.258;2023-11-22T13:33:10;35.40;;;16.10;;
44662;SDS011;30381;52.754;18.258;2023-11-22T13:35:40;31.30;;;14.30;;
44662;SDS011;30381;52.754;18.258;2023-11-22T13:38:10;30.10;;;13.20;;
44662;SDS011;30381;52.754;18.258;2023-11-22T13:40:39;34.60;;;14.40;;
44662;SDS011;30381;52.754;18.258;2023-11-22T13:43:11;29.70;;;13.80;;
44662;SDS011;30381;52.754;18.258;2023-11-22T13:45:40;28.80;;;13.40;;
44662;SDS011;30381;52.754;18.258;2023-11-22T13:48:07;30.60;;;15.00;;
44662;SDS011;30381;52.754;18.258;2023-11-22T13:50:37;30.80;;;13.90;;
44662;SDS011;30381;52.754;18.258;2023-11-22T13:53:04;39.40;;;15.80;;
44662;SDS011;30381;52.754;18.258;2023-11-22T13:55:32;46.30;;;26.90;;
44662;SDS011;30381;52.754;18.258;2023-11-22T13:58:04;35.20;;;15.60;;
44662;SDS011;30381;52.754;18.258;2023-11-22T14:00:31;33.40;;;15.70;;
44662;SDS011;30381;52.754;18.258;2023-11-22T14:03:08;38.30;;;16.30;;
44662;SDS011;30381;52.754;18.258;2023-11-22T14:05:37;32.70;;;16.00;;
44662;SDS011;30381;52.754;18.258;2023-11-22T14:08:43;44.40;;;23.50;;
44662;SDS011;30381;52.754;18.258;2023-11-22T14:11:13;39.50;;;21.00;;
44662;SDS011;30381;52.754;18.258;2023-11-22T14:13:39;42.50;;;17.10;;
44662;SDS011;30381;52.754;18.258;2023-11-22T14:16:06;42.80;;;19.30;;
44662;SDS011;30381;52.754;18.258;2023-11-22T14:18:32;39.30;;;19.60;;
44662;SDS011;30381;52.754;18.258;2023-11-22T14:21:12;40.70;;;20.00;;
44662;SDS011;30381;52.754;18.258;2023-11-22T14:24:23;46.40;;;22.20;;
44662;SDS011;30381;52.754;18.258;2023-11-22T14:29:48;40.30;;;18.80;;
44662;SDS011;30381;52.754;18.258;2023-11-22T14:32:20;51.40;;;26.00;;
44662;SDS011;30381;52.754;18.258;2023-11-22T14:34:46;44.40;;;21.60;;
44662;SDS011;30381;52.754;18.258;2023-11-22T14:37:13;59.30;;;28.40;;
44662;SDS011;30381;52.754;18.258;2023-11-22T14:39:44;56.90;;;30.00;;
44662;SDS011;30381;52.754;18.258;2023-11-22T14:42:21;50.60;;;26.70;;
44662;SDS011;30381;52.754;18.258;2023-11-22T14:44:51;77.20;;;32.60;;
44662;SDS011;30381;52.754;18.258;2023-11-22T14:47:20;79.80;;;33.30;;
44662;SDS011;30381;52.754;18.258;2023-11-22T14:49:50;68.30;;;30.60;;
44662;SDS011;30381;52.754;18.258;2023-11-22T14:52:18;61.90;;;29.00;;
44662;SDS011;30381;52.754;18.258;2023-11-22T14:54:47;53.90;;;27.20;;
44662;SDS011;30381;52.754;18.258;2023-11-22T14:57:14;62.50;;;25.50;;
44662;SDS011;30381;52.754;18.258;2023-11-22T14:59:43;61.80;;;26.70;;
44662;SDS011;30381;52.754;18.258;2023-11-22T15:02:11;62.20;;;26.80;;
44662;SDS011;30381;52.754;18.258;2023-11-22T15:04:37;65.70;;;26.70;;
44662;SDS011;30381;52.754;18.258;2023-11-22T15:07:04;60.70;;;25.20;;
44662;SDS011;30381;52.754;18.258;2023-11-22T15:09:33;62.90;;;25.90;;
44662;SDS011;30381;52.754;18.258;2023-11-22T15:12:00;57.70;;;24.30;;
44662;SDS011;30381;52.754;18.258;2023-11-22T15:14:30;54.90;;;23.80;;
44662;SDS011;30381;52.754;18.258;2023-11-22T15:16:57;58.30;;;24.60;;
44662;SDS011;30381;52.754;18.258;2023-11-22T15:19:23;61.50;;;26.10;;
44662;SDS011;30381;52.754;18.258;2023-11-22T15:21:53;75.50;;;30.80;;
44662;SDS011;30381;52.754;18.258;2023-11-22T15:24:20;63.80;;;26.40;;
44662;SDS011;30381;52.754;18.258;2023-11-22T15:26:46;106.10;;;39.50;;
44662;SDS011;30381;52.754;18.258;2023-11-22T15:29:16;173.30;;;77.70;;
44662;SDS011;30381;52.754;18.258;2023-11-22T15:31:49;86.20;;;43.00;;
44662;SDS011;30381;52.754;18.258;2023-11-22T15:34:24;78.90;;;37.70;;
44662;SDS011;30381;52.754;18.258;2023-11-22T15:37:04;97.30;;;41.80;;
44662;SDS011;30381;52.754;18.258;2023-11-22T15:40:34;74.90;;;32.70;;
44662;SDS011;30381;52.754;18.258;2023-11-22T15:43:01;82.80;;;36.00;;
44662;SDS011;30381;52.754;18.258;2023-11-22T15:45:27;82.60;;;37.80;;
44662;SDS011;30381;52.754;18.258;2023-11-22T15:47:56;70.90;;;34.10;;
44662;SDS011;30381;52.754;18.258;2023-11-22T15:50:28;58.70;;;27.70;;
44662;SDS011;30381;52.754;18.258;2023-11-22T15:52:55;74.30;;;31.70;;
44662;SDS011;30381;52.754;18.258;2023-11-22T15:55:21;55.80;;;26.40;;